Terminal Aerodrome Forecast
Issued by NWS Charleston, WV

Current Version | Previous Version | Graphics & Text | Print | Product List | Glossary Off
Versions: 1 2 3 4 5 6 7 8 9 10 11 12 13 14 15 16 17 18 19 20 21 22 23 24

000
FTUS41 KRLX 011700 RRA
TAFEKN
TAF
KEKN 011744Z 0118/0218 16004KT P6SM BKN050
     FM012300 00000KT P6SM BKN050
     FM020200 00000KT 5SM BR BKN040
     FM020600 00000KT 2SM BR BKN040
     FM021200 00000KT 3SM BR BKN035
     FM021300 00000KT P6SM BKN025
     FM021600 VRB03KT P6SM BKN015=

USA.gov is the U.S. government's official web portal to all federal, state and local government web resources and services.